Time;durP1;ratioP1;P1;durP2;ratioP2;P2;SDS_P1;SDS_P2;PMS_P1;PMS_P2;Temp;Humidity;BMP_temperature;BMP_pressure;BME280_temperature;BME280_humidity;BME280_pressure;Samples;Min_cycle;Max_cycle;Signal;HPM_P1;HPM_P2
2023/03/09 00:00:56;;;;;;;;;;;;;;;10.60;43.55;98388.25;4921701;28;98532;-67
2023/03/09 00:03:23;;;;;;;;;;;;;;;10.59;43.10;98383.97;4909437;28;98135;-68
2023/03/09 00:05:57;;;;;;;;;;;;;;;10.59;43.32;98387.47;4917587;28;98251;-69
2023/03/09 00:08:24;;;;;;;;;;;;;;;10.59;43.73;98392.84;4910063;28;97932;-69
2023/03/09 00:10:52;;;;;;;;;;;;;;;10.58;43.64;98391.28;4909161;28;98317;-70
2023/03/09 00:13:19;;;;;;;;;;;;;;;10.58;43.56;98388.59;4921305;28;99509;-68
2023/03/09 00:15:50;;;;;;;;;;;;;;;10.59;43.57;98381.28;4922509;28;98162;-67
2023/03/09 00:18:22;;;;;;;;;;;;;;;10.58;43.68;98372.41;4910301;28;99831;-66
2023/03/09 00:20:48;;;;;;;;;;;;;;;10.57;43.39;98377.00;4940018;28;97979;-70
2023/03/09 00:23:17;;;;;;;;;;;;;;;10.57;43.17;98387.78;4909671;28;98690;-70
2023/03/09 00:25:44;;;;;;;;;;;;;;;10.56;43.39;98386.19;4920020;28;98196;-69
2023/03/09 00:28:10;;;;;;;;;;;;;;;10.56;43.38;98386.19;4907381;28;98422;-67
2023/03/09 00:30:36;;;;;;;;;;;;;;;10.57;43.21;98373.50;4909014;28;98137;-69
2023/03/09 00:33:02;;;;;;;;;;;;;;;10.57;43.58;98381.59;4937038;28;97957;-67
2023/03/09 00:35:29;;;;;;;;;;;;;;;10.56;43.24;98391.56;4906948;28;98072;-69
2023/03/09 00:37:55;;;;;;;;;;;;;;;10.56;43.48;98388.09;4937585;28;98276;-67
2023/03/09 00:40:21;;;;;;;;;;;;;;;10.56;43.56;98382.69;4909382;28;98155;-68
2023/03/09 00:42:47;;;;;;;;;;;;;;;10.56;43.23;98377.31;4918215;28;98262;-67
2023/03/09 00:45:14;;;;;;;;;;;;;;;10.56;43.61;98369.22;4918539;28;98040;-70
2023/03/09 00:47:40;;;;;;;;;;;;;;;10.55;43.20;98363.06;4924004;28;98115;-67
2023/03/09 00:50:07;;;;;;;;;;;;;;;10.54;43.37;98356.09;4907986;28;98394;-70
2023/03/09 00:52:33;;;;;;;;;;;;;;;10.55;43.41;98362.25;4908425;28;99163;-67
2023/03/09 00:54:59;;;;;;;;;;;;;;;10.55;43.15;98357.66;4923260;28;98460;-69
2023/03/09 00:57:26;;;;;;;;;;;;;;;10.55;43.54;98346.88;4920833;28;98869;-67
2023/03/09 00:59:52;;;;;;;;;;;;;;;10.55;43.64;98329.94;4920717;28;98150;-67
2023/03/09 01:02:22;;;;;;;;;;;;;;;10.56;43.67;98334.22;4904136;28;98461;-67
2023/03/09 01:04:48;;;;;;;;;;;;;;;10.54;43.25;98339.13;4906721;28;98176;-69
2023/03/09 01:07:14;;;;;;;;;;;;;;;10.54;43.62;98339.13;4904120;28;98180;-70
2023/03/09 01:09:41;;;;;;;;;;;;;;;10.54;43.09;98341.84;4905335;28;99459;-69
2023/03/09 01:12:07;;;;;;;;;;;;;;;10.54;43.45;98349.91;4906611;28;98093;-70
2023/03/09 01:14:33;;;;;;;;;;;;;;;10.53;43.76;98346.44;4906422;28;98047;-67
2023/03/09 01:17:00;;;;;;;;;;;;;;;10.53;43.76;98340.22;4907747;28;98303;-70
2023/03/09 01:19:26;;;;;;;;;;;;;;;10.52;43.46;98327.88;4909169;28;98189;-70
2023/03/09 01:21:52;;;;;;;;;;;;;;;10.52;43.62;98328.66;4906878;28;98379;-67
2023/03/09 01:24:19;;;;;;;;;;;;;;;10.52;43.80;98328.66;4919767;28;97905;-69
2023/03/09 01:26:45;;;;;;;;;;;;;;;10.53;43.75;98329.44;4908812;28;99318;-67
2023/03/09 01:29:11;;;;;;;;;;;;;;;10.52;43.75;98325.19;4928993;28;98019;-69
2023/03/09 01:31:38;;;;;;;;;;;;;;;10.52;43.38;98325.19;4934900;28;97945;-67
2023/03/09 01:34:04;;;;;;;;;;;;;;;10.51;43.18;98323.59;4919637;28;98231;-69
2023/03/09 01:36:30;;;;;;;;;;;;;;;10.51;43.08;98315.53;4915347;28;98705;-67
2023/03/09 01:38:56;;;;;;;;;;;;;;;10.51;43.28;98321.69;4900836;28;98139;-67
2023/03/09 01:41:23;;;;;;;;;;;;;;;10.51;43.10;98326.31;4917018;28;98300;-69
2023/03/09 01:43:51;;;;;;;;;;;;;;;10.50;43.49;98320.13;4921928;28;97922;-70
2023/03/09 01:46:27;;;;;;;;;;;;;;;10.51;43.67;98320.91;4904532;28;98285;-67
2023/03/09 01:49:02;;;;;;;;;;;;;;;10.49;43.08;98318.53;4935452;28;98510;-67
2023/03/09 01:51:32;;;;;;;;;;;;;;;10.49;43.50;98309.66;4949065;28;98089;-67
2023/03/09 01:53:58;;;;;;;;;;;;;;;10.49;43.38;98304.25;4920088;28;99933;-69
2023/03/09 01:56:24;;;;;;;;;;;;;;;10.48;43.46;98308.84;4933436;28;98917;-68
2023/03/09 01:58:51;;;;;;;;;;;;;;;10.48;43.45;98295.41;4935690;28;97908;-66
2023/03/09 02:01:17;;;;;;;;;;;;;;;10.47;42.98;98298.41;4922435;28;98251;-69
2023/03/09 02:03:46;;;;;;;;;;;;;;;10.46;43.50;98288.75;4917619;28;99529;-69
2023/03/09 02:06:16;;;;;;;;;;;;;;;10.46;43.76;98289.56;4905648;28;99353;-66
2023/03/09 02:08:50;;;;;;;;;;;;;;;10.45;43.74;98293.34;4908359;28;98119;-68
2023/03/09 02:11:16;;;;;;;;;;;;;;;10.45;43.13;98279.06;4918385;28;98281;-66
2023/03/09 02:13:45;;;;;;;;;;;;;;;10.45;43.13;98284.47;4907448;28;98269;-69
2023/03/09 02:16:11;;;;;;;;;;;;;;;10.44;43.59;98280.97;4906852;28;98290;-69
2023/03/09 02:18:38;;;;;;;;;;;;;;;10.43;43.66;98281.31;4907028;28;97954;-67
2023/03/09 02:21:27;;;;;;;;;;;;;;;10.43;43.65;98265.16;4907810;28;98131;-69
2023/03/09 02:24:10;;;;;;;;;;;;;;;10.43;43.21;98265.94;4936657;28;116728;-67
2023/03/09 02:26:45;;;;;;;;;;;;;;;10.42;43.32;98267.06;4934655;28;98255;-66
2023/03/09 02:29:11;;;;;;;;;;;;;;;10.42;43.34;98264.38;4908318;28;97944;-67
2023/03/09 02:31:38;;;;;;;;;;;;;;;10.40;43.72;98261.19;4923484;28;98012;-70
2023/03/09 02:34:04;;;;;;;;;;;;;;;10.40;43.20;98261.19;4906081;28;98144;-70
2023/03/09 02:36:31;;;;;;;;;;;;;;;10.41;43.76;98262.75;4908695;28;98128;-67
2023/03/09 02:39:00;;;;;;;;;;;;;;;10.40;43.52;98261.19;4924770;28;98066;-69
2023/03/09 02:41:26;;;;;;;;;;;;;;;10.40;43.17;98253.09;4926838;28;100042;-67
2023/03/09 02:43:54;;;;;;;;;;;;;;;10.39;43.30;98246.13;4934749;28;97993;-69
2023/03/09 02:46:20;;;;;;;;;;;;;;;10.40;43.49;98241.53;4926202;28;99489;-67
2023/03/09 02:48:47;;;;;;;;;;;;;;;10.39;43.18;98238.06;4910192;28;98118;-69
2023/03/09 02:51:13;;;;;;;;;;;;;;;10.38;43.79;98241.09;4910473;28;98116;-69
2023/03/09 02:53:39;;;;;;;;;;;;;;;10.37;43.07;98245.66;4907154;28;100005;-67
2023/03/09 02:56:06;;;;;;;;;;;;;;;10.35;43.21;98237.13;4940074;28;106788;-69
2023/03/09 02:58:32;;;;;;;;;;;;;;;10.37;43.61;98242.97;4909188;28;98025;-67
2023/03/09 03:00:58;;;;;;;;;;;;;;;10.35;43.11;98247.09;4907366;28;98004;-69
2023/03/09 03:03:24;;;;;;;;;;;;;;;10.35;43.76;98241.72;4906229;28;98787;-69
2023/03/09 03:05:51;;;;;;;;;;;;;;;10.34;43.58;98245.53;4906638;28;98076;-67
2023/03/09 03:08:17;;;;;;;;;;;;;;;10.33;43.34;98247.41;4905893;28;98320;-69
2023/03/09 03:10:47;;;;;;;;;;;;;;;10.32;43.66;98243.91;4910798;28;99913;-67
2023/03/09 03:13:13;;;;;;;;;;;;;;;10.31;43.40;98245.03;4942628;28;99922;-69
2023/03/09 03:15:39;;;;;;;;;;;;;;;10.30;43.45;98234.59;4920338;28;99225;-69
2023/03/09 03:18:05;;;;;;;;;;;;;;;10.30;43.28;98238.09;4908294;28;98054;-69
2023/03/09 03:20:32;;;;;;;;;;;;;;;10.30;43.32;98234.59;4906607;28;97983;-67
2023/03/09 03:22:58;;;;;;;;;;;;;;;10.28;43.18;98234.13;4902167;28;99782;-68
2023/03/09 03:25:25;;;;;;;;;;;;;;;10.28;43.21;98239.50;4902730;28;98001;-66
2023/03/09 03:27:51;;;;;;;;;;;;;;;10.27;43.42;98237.94;4907608;28;98266;-68
2023/03/09 03:30:17;;;;;;;;;;;;;;;10.26;43.75;98234.44;4909162;28;99609;-68
2023/03/09 03:32:44;;;;;;;;;;;;;;;10.26;43.76;98242.53;4923761;28;98417;-66
2023/03/09 03:35:11;;;;;;;;;;;;;;;10.26;43.33;98233.66;4925331;28;98616;-68
2023/03/09 03:37:38;;;;;;;;;;;;;;;10.25;43.72;98232.84;4911336;28;99957;-66
2023/03/09 03:40:08;;;;;;;;;;;;;;;10.24;43.49;98230.44;4910848;28;97935;-69
2023/03/09 03:42:34;;;;;;;;;;;;;;;10.24;43.54;98233.94;4922901;28;98522;-68
2023/03/09 03:45:00;;;;;;;;;;;;;;;10.23;43.15;98231.56;4905421;28;99719;-66
2023/03/09 03:47:26;;;;;;;;;;;;;;;10.23;43.81;98228.88;4908174;28;98067;-68
2023/03/09 03:49:53;;;;;;;;;;;;;;;10.22;43.87;98227.28;4924325;28;98074;-68
2023/03/09 03:52:18;;;;;;;;;;;;;;;10.22;43.22;98227.28;4924090;28;98128;-66
2023/03/09 03:54:45;;;;;;;;;;;;;;;10.21;43.42;98223.00;4907451;28;99445;-65
2023/03/09 03:57:11;;;;;;;;;;;;;;;10.20;43.79;98221.41;4909994;28;98091;-65
2023/03/09 03:59:38;;;;;;;;;;;;;;;10.20;43.32;98218.72;4910421;28;98295;-66
2023/03/09 04:02:04;;;;;;;;;;;;;;;10.19;43.20;98214.47;4909122;28;98154;-66
2023/03/09 04:04:30;;;;;;;;;;;;;;;10.17;43.33;98217.47;4921496;28;98114;-66
2023/03/09 04:06:56;;;;;;;;;;;;;;;10.17;43.55;98220.16;4909337;28;97900;-66
2023/03/09 04:09:23;;;;;;;;;;;;;;;10.17;43.52;98219.38;4921951;28;99880;-68
2023/03/09 04:11:49;;;;;;;;;;;;;;;10.16;43.42;98213.19;4910718;28;97961;-67
2023/03/09 04:14:16;;;;;;;;;;;;;;;10.17;43.86;98216.66;4905399;28;98128;-67
2023/03/09 04:16:42;;;;;;;;;;;;;;;10.15;43.63;98208.13;4923410;28;98188;-65
2023/03/09 04:19:08;;;;;;;;;;;;;;;10.14;43.84;98204.66;4908884;28;98079;-65
2023/03/09 04:21:34;;;;;;;;;;;;;;;10.14;43.47;98210.03;4925685;28;98838;-66
2023/03/09 04:24:01;;;;;;;;;;;;;;;10.14;43.52;98206.53;4903599;28;97865;-67
2023/03/09 04:26:27;;;;;;;;;;;;;;;10.14;43.63;98209.22;4908407;28;97934;-66
2023/03/09 04:28:53;;;;;;;;;;;;;;;10.12;43.50;98204.16;4903305;28;100740;-67
2023/03/09 04:31:19;;;;;;;;;;;;;;;10.12;43.39;98206.06;4904534;28;98122;-66
2023/03/09 04:33:46;;;;;;;;;;;;;;;10.12;43.85;98203.38;4933463;28;99348;-66
2023/03/09 04:36:12;;;;;;;;;;;;;;;10.12;43.05;98204.16;4913144;28;97918;-67
2023/03/09 04:38:38;;;;;;;;;;;;;;;10.13;43.76;98204.97;4929972;28;98129;-67
2023/03/09 04:41:04;;;;;;;;;;;;;;;10.12;43.38;98206.06;4918622;28;98198;-66
2023/03/09 04:43:30;;;;;;;;;;;;;;;10.10;43.34;98206.41;4924266;28;98033;-66
2023/03/09 04:45:56;;;;;;;;;;;;;;;10.12;43.63;98206.06;4921823;28;98349;-66
2023/03/09 04:48:22;;;;;;;;;;;;;;;10.11;43.51;98213.38;4908927;28;99527;-66
2023/03/09 04:50:49;;;;;;;;;;;;;;;10.12;43.79;98211.47;4909151;28;98171;-66
2023/03/09 04:53:15;;;;;;;;;;;;;;;10.13;43.36;98221.09;4910393;28;98231;-66
2023/03/09 04:55:41;;;;;;;;;;;;;;;10.12;43.69;98217.63;4908635;28;98874;-66
2023/03/09 04:58:10;;;;;;;;;;;;;;;10.12;43.47;98212.25;4906492;28;98168;-66
2023/03/09 05:00:36;;;;;;;;;;;;;;;10.13;44.05;98221.09;4912646;28;98472;-67
2023/03/09 05:03:02;;;;;;;;;;;;;;;10.14;43.82;98214.59;4907583;28;98258;-67
2023/03/09 05:05:28;;;;;;;;;;;;;;;10.13;43.75;98218.41;4905546;28;98239;-66
2023/03/09 05:07:54;;;;;;;;;;;;;;;10.13;43.62;98219.19;4907272;28;98164;-66
2023/03/09 05:10:20;;;;;;;;;;;;;;;10.13;44.01;98219.19;4906228;28;98312;-66
2023/03/09 05:12:47;;;;;;;;;;;;;;;10.14;43.40;98214.59;4915652;28;98432;-66
2023/03/09 05:15:13;;;;;;;;;;;;;;;10.14;43.39;98220.00;4911858;28;99329;-66
2023/03/09 05:17:39;;;;;;;;;;;;;;;10.14;43.62;98217.28;4905273;28;99583;-66
2023/03/09 05:20:09;;;;;;;;;;;;;;;10.14;43.21;98212.72;4906101;28;98097;-67
2023/03/09 05:22:37;;;;;;;;;;;;;;;10.15;43.72;98213.53;4904861;28;101505;-67
2023/03/09 05:25:04;;;;;;;;;;;;;;;10.16;43.47;98215.09;4920191;28;97931;-66
2023/03/09 05:27:31;;;;;;;;;;;;;;;10.15;43.82;98208.91;4920615;28;99985;-66
2023/03/09 05:29:57;;;;;;;;;;;;;;;10.15;43.52;98208.91;4925168;28;98631;-67
2023/03/09 05:32:23;;;;;;;;;;;;;;;10.16;43.28;98209.72;4906807;28;98095;-66
2023/03/09 05:34:49;;;;;;;;;;;;;;;10.16;43.39;98202.41;4908017;28;98037;-66
2023/03/09 05:37:15;;;;;;;;;;;;;;;10.16;43.67;98207.81;4907185;28;101904;-67
2023/03/09 05:39:41;;;;;;;;;;;;;;;10.18;43.41;98207.47;4925089;28;98219;-66
2023/03/09 05:42:07;;;;;;;;;;;;;;;10.16;43.61;98202.41;4918755;28;99564;-66
2023/03/09 05:44:33;;;;;;;;;;;;;;;10.18;43.62;98199.41;4905027;28;98017;-66
2023/03/09 05:46:59;;;;;;;;;;;;;;;10.18;43.52;98199.41;4906848;28;97795;-66
2023/03/09 05:49:30;;;;;;;;;;;;;;;10.19;43.52;98198.31;4917967;28;98443;-66
2023/03/09 05:51:57;;;;;;;;;;;;;;;10.18;43.60;98202.91;4929427;28;98059;-67
2023/03/09 05:54:23;;;;;;;;;;;;;;;10.19;43.41;98203.69;4904269;28;98000;-67
2023/03/09 05:56:52;;;;;;;;;;;;;;;10.19;43.33;98199.09;4895543;28;100000;-66
2023/03/09 05:59:18;;;;;;;;;;;;;;;10.20;43.21;98197.97;4929218;28;97973;-66
2023/03/09 06:01:44;;;;;;;;;;;;;;;10.20;43.45;98202.56;4903670;28;97927;-67
2023/03/09 06:04:10;;;;;;;;;;;;;;;10.20;43.91;98208.75;4903735;28;98204;-66
2023/03/09 06:06:37;;;;;;;;;;;;;;;10.21;43.47;98204.94;4903156;28;98415;-66
2023/03/09 06:09:03;;;;;;;;;;;;;;;10.22;43.81;98209.22;4919560;28;97991;-67
2023/03/09 06:11:30;;;;;;;;;;;;;;;10.23;43.73;98215.41;4908266;28;97924;-67
2023/03/09 06:13:56;;;;;;;;;;;;;;;10.23;43.37;98216.19;4905301;28;98056;-68
2023/03/09 06:16:22;;;;;;;;;;;;;;;10.23;43.73;98224.28;4923926;28;98229;-66
2023/03/09 06:18:48;;;;;;;;;;;;;;;10.25;43.18;98226.66;4939088;28;100729;-66
2023/03/09 06:21:15;;;;;;;;;;;;;;;10.25;43.14;98234.75;4923205;28;98136;-66
2023/03/09 06:23:41;;;;;;;;;;;;;;;10.26;43.33;98237.13;4909991;28;99841;-65
2023/03/09 06:26:10;;;;;;;;;;;;;;;10.26;43.19;98239.03;4908385;28;99630;-66
2023/03/09 06:28:36;;;;;;;;;;;;;;;10.28;43.81;98255.66;4911175;28;100415;-65
2023/03/09 06:31:06;;;;;;;;;;;;;;;10.29;43.72;98257.22;4908139;28;98001;-65
2023/03/09 06:33:33;;;;;;;;;;;;;;;10.30;43.66;98258.84;4915349;28;98116;-67
2023/03/09 06:36:01;;;;;;;;;;;;;;;10.32;43.74;98265.47;4910170;28;100559;-66
2023/03/09 06:38:27;;;;;;;;;;;;;;;10.36;43.39;98278.31;4928899;28;100252;-66
2023/03/09 06:40:54;;;;;;;;;;;;;;;10.38;43.32;98279.56;4923936;28;99333;-65
2023/03/09 06:43:20;;;;;;;;;;;;;;;10.41;43.42;98294.28;4911048;28;98140;-65
2023/03/09 06:45:47;;;;;;;;;;;;;;;10.42;43.78;98296.69;4924732;28;98168;-66
2023/03/09 06:48:13;;;;;;;;;;;;;;;10.41;43.18;98311.25;4909474;28;98069;-66
2023/03/09 06:50:39;;;;;;;;;;;;;;;10.42;43.40;98320.91;4912118;28;97965;-67
2023/03/09 06:53:05;;;;;;;;;;;;;;;10.43;43.76;98335.19;4926547;28;98329;-66
2023/03/09 06:55:31;;;;;;;;;;;;;;;10.42;43.73;98339.00;4922811;28;99361;-68
2023/03/09 06:57:57;;;;;;;;;;;;;;;10.42;43.40;98349.75;4908108;28;98147;-66
2023/03/09 07:00:23;;;;;;;;;;;;;;;10.42;43.12;98350.56;4909549;28;97919;-66
2023/03/09 07:02:49;;;;;;;;;;;;;;;10.43;43.71;98357.50;4921281;28;98025;-66
2023/03/09 07:05:15;;;;;;;;;;;;;;;10.43;43.20;98367.50;4925073;28;98362;-67
2023/03/09 07:07:42;;;;;;;;;;;;;;;10.44;43.54;98363.69;4923107;28;99864;-66
2023/03/09 07:10:09;;;;;;;;;;;;;;;10.46;43.65;98362.28;4909742;28;99804;-68
2023/03/09 07:12:36;;;;;;;;;;;;;;;10.48;43.44;98384.28;4910919;28;98175;-67
2023/03/09 07:15:02;;;;;;;;;;;;;;;10.50;43.30;98392.06;4912884;28;98140;-67
2023/03/09 07:17:28;;;;;;;;;;;;;;;10.50;43.75;98392.06;4920948;28;98462;-66
2023/03/09 07:19:56;;;;;;;;;;;;;;;10.51;43.42;98407.91;4937535;28;97964;-68
2023/03/09 07:22:22;;;;;;;;;;;;;;;10.53;43.79;98404.88;4923702;28;99563;-67
2023/03/09 07:24:49;;;;;;;;;;;;;;;10.54;43.26;98418.06;4905510;28;100020;-68
2023/03/09 07:27:15;;;;;;;;;;;;;;;10.54;43.16;98418.06;4907998;28;98139;-66
2023/03/09 07:29:41;;;;;;;;;;;;;;;10.53;43.19;98424.56;4909960;28;99000;-67
2023/03/09 07:32:08;;;;;;;;;;;;;;;10.55;43.13;98426.91;4919948;28;97854;-67
2023/03/09 07:34:35;;;;;;;;;;;;;;;10.56;43.74;98420.41;4911296;28;98206;-67
2023/03/09 07:37:01;;;;;;;;;;;;;;;10.60;43.06;98440.22;4909583;28;97987;-66
2023/03/09 07:39:27;;;;;;;;;;;;;;;10.62;43.02;98456.88;4926239;28;99581;-67
2023/03/09 07:41:53;;;;;;;;;;;;;;;10.62;43.46;98459.59;4925113;28;98377;-67
2023/03/09 07:44:19;;;;;;;;;;;;;;;10.61;43.45;98457.19;4909935;28;99116;-67
2023/03/09 07:46:45;;;;;;;;;;;;;;;10.65;43.28;98456.25;4939473;28;98145;-68
2023/03/09 07:49:11;;;;;;;;;;;;;;;10.69;43.32;98477.94;4926825;28;99826;-66
2023/03/09 07:51:38;;;;;;;;;;;;;;;10.74;43.18;98483.22;4907846;28;98051;-67
2023/03/09 07:54:07;;;;;;;;;;;;;;;10.79;43.24;98491.91;4907363;28;98100;-67
2023/03/09 07:56:33;;;;;;;;;;;;;;;10.91;42.98;98502.06;4919546;28;100236;-69
2023/03/09 07:58:59;;;;;;;;;;;;;;;10.99;43.19;98506.69;4905087;28;99870;-68
2023/03/09 08:01:27;;;;;;;;;;;;;;;11.06;43.03;98507.00;4910437;28;98247;-67
2023/03/09 08:03:53;;;;;;;;;;;;;;;11.10;43.03;98523.34;4923145;28;99002;-67
2023/03/09 08:06:19;;;;;;;;;;;;;;;11.15;43.23;98535.88;4940049;28;98696;-67
2023/03/09 08:08:46;;;;;;;;;;;;;;;11.19;43.06;98540.31;4935424;28;97962;-67
2023/03/09 08:11:13;;;;;;;;;;;;;;;11.21;43.23;98534.59;4910492;28;97843;-67
2023/03/09 08:13:39;;;;;;;;;;;;;;;11.19;43.13;98542.22;4907308;28;108356;-68
2023/03/09 08:16:07;;;;;;;;;;;;;;;11.16;43.16;98540.97;4908946;28;98241;-67
2023/03/09 08:18:34;;;;;;;;;;;;;;;11.12;43.31;98552.66;4909942;28;98446;-68
2023/03/09 08:21:11;;;;;;;;;;;;;;;11.20;43.25;98557.28;4911516;28;98102;-67
2023/03/09 08:23:39;;;;;;;;;;;;;;;11.28;43.13;98564.59;4909006;28;98227;-67
2023/03/09 08:26:06;;;;;;;;;;;;;;;11.33;42.99;98567.13;4920310;28;97995;-69
2023/03/09 08:28:32;;;;;;;;;;;;;;;11.40;42.93;98599.81;4911212;28;97929;-68
2023/03/09 08:30:58;;;;;;;;;;;;;;;11.43;43.07;98598.38;4905518;28;98021;-67
2023/03/09 08:33:25;;;;;;;;;;;;;;;11.44;43.07;98606.16;4924235;28;98125;-70
2023/03/09 08:35:51;;;;;;;;;;;;;;;11.46;43.18;98622.03;4906619;28;97998;-68
2023/03/09 08:38:17;;;;;;;;;;;;;;;11.47;43.00;98634.41;4908459;28;97982;-67
2023/03/09 08:40:43;;;;;;;;;;;;;;;11.47;43.01;98642.50;4907588;28;97953;-69
2023/03/09 08:43:10;;;;;;;;;;;;;;;11.51;42.88;98646.97;4912352;28;98187;-67
2023/03/09 08:45:38;;;;;;;;;;;;;;;11.55;43.00;98647.09;4915504;28;97991;-67
2023/03/09 08:48:04;;;;;;;;;;;;;;;11.60;43.14;98654.25;4904317;28;98085;-67
2023/03/09 08:50:30;;;;;;;;;;;;;;;11.69;42.95;98655.84;4928963;28;98173;-67
2023/03/09 08:52:56;;;;;;;;;;;;;;;11.72;43.00;98657.13;4923509;28;98316;-68
2023/03/09 08:55:23;;;;;;;;;;;;;;;11.75;42.96;98651.88;4909661;28;99960;-69
2023/03/09 08:57:51;;;;;;;;;;;;;;;11.76;43.05;98683.16;4925740;28;98381;-67
2023/03/09 09:00:18;;;;;;;;;;;;;;;11.77;43.06;98667.75;4908689;28;98029;-69
2023/03/09 09:02:44;;;;;;;;;;;;;;;11.86;42.93;98683.97;4908798;28;98162;-68
2023/03/09 09:05:10;;;;;;;;;;;;;;;11.90;42.85;98684.91;4917272;28;99157;-69
2023/03/09 09:07:36;;;;;;;;;;;;;;;11.91;42.83;98698.13;4923785;28;98132;-69
2023/03/09 09:10:02;;;;;;;;;;;;;;;11.95;42.81;98690.16;4911351;28;98300;-67
2023/03/09 09:12:32;;;;;;;;;;;;;;;12.01;42.90;98694.28;4920562;28;98020;-67
2023/03/09 09:14:58;;;;;;;;;;;;;;;12.08;42.96;98678.41;4924744;28;98381;-67
2023/03/09 09:17:24;;;;;;;;;;;;;;;12.16;42.71;98687.59;4907905;28;99245;-67
2023/03/09 09:19:51;;;;;;;;;;;;;;;12.20;42.95;98686.63;4933469;28;108469;-67
2023/03/09 09:22:17;;;;;;;;;;;;;;;12.22;42.92;98687.13;4920750;28;98156;-67
2023/03/09 09:24:44;;;;;;;;;;;;;;;12.26;42.98;98706.16;4907561;28;98113;-66
2023/03/09 09:27:10;;;;;;;;;;;;;;;12.28;42.78;98707.44;4924672;28;99716;-67
2023/03/09 09:29:36;;;;;;;;;;;;;;;12.29;42.79;98709.00;4905948;28;98134;-69
2023/03/09 09:32:06;;;;;;;;;;;;;;;12.32;43.02;98721.09;4919742;28;101178;-67
2023/03/09 09:34:32;;;;;;;;;;;;;;;12.37;43.06;98718.22;4922123;28;97869;-69
2023/03/09 09:37:02;;;;;;;;;;;;;;;12.45;42.83;98727.41;4907514;28;98234;-69
2023/03/09 09:39:29;;;;;;;;;;;;;;;12.45;42.78;98736.31;4909984;28;99066;-69
2023/03/09 09:42:00;;;;;;;;;;;;;;;12.44;42.92;98748.25;4904345;28;108219;-69
2023/03/09 09:44:31;;;;;;;;;;;;;;;12.47;42.87;98758.44;4904225;28;97871;-69
2023/03/09 09:47:00;;;;;;;;;;;;;;;12.48;42.83;98778.13;4915738;28;98307;-68
2023/03/09 09:49:26;;;;;;;;;;;;;;;12.42;43.05;98782.13;4905113;28;98330;-69
2023/03/09 09:52:01;;;;;;;;;;;;;;;12.40;42.96;98774.31;4920007;28;98542;-69
2023/03/09 09:54:36;;;;;;;;;;;;;;;12.45;43.09;98789.56;4939263;28;97957;-67
2023/03/09 09:57:13;;;;;;;;;;;;;;;12.49;42.91;98791.31;4922302;28;97961;-69
2023/03/09 09:59:49;;;;;;;;;;;;;;;12.53;42.70;98794.97;4907175;28;98077;-67
2023/03/09 10:02:56;;;;;;;;;;;;;;;12.58;42.70;98799.44;4898877;28;107496;-67
2023/03/09 10:05:31;;;;;;;;;;;;;;;12.63;42.86;98804.66;4904771;28;98116;-67
2023/03/09 10:08:05;;;;;;;;;;;;;;;12.70;42.88;98809.59;4934714;28;98099;-67
2023/03/09 10:10:31;;;;;;;;;;;;;;;12.74;42.64;98810.53;4906915;28;98226;-69
2023/03/09 10:13:11;;;;;;;;;;;;;;;12.79;42.69;98804.94;4915508;28;107486;-67
2023/03/09 10:15:38;;;;;;;;;;;;;;;12.88;42.62;98804.91;4914693;28;98094;-69
2023/03/09 10:18:19;;;;;;;;;;;;;;;12.92;42.64;98816.69;4909229;28;98062;-69
2023/03/09 10:20:46;;;;;;;;;;;;;;;12.98;42.73;98827.00;4949271;28;98059;-69
2023/03/09 10:23:31;;;;;;;;;;;;;;;13.05;42.81;98826.53;4903926;28;98160;-68
2023/03/09 10:26:23;;;;;;;;;;;;;;;13.15;42.44;98820.75;4922100;28;97928;-70
2023/03/09 10:28:50;;;;;;;;;;;;;;;13.21;42.49;98827.59;4916853;28;122553;-69
2023/03/09 10:31:36;;;;;;;;;;;;;;;13.20;42.42;98836.81;4915906;28;97933;-69
2023/03/09 10:34:04;;;;;;;;;;;;;;;13.30;42.58;98838.41;4926210;28;98243;-70
2023/03/09 10:36:31;;;;;;;;;;;;;;;13.37;42.63;98838.69;4940001;28;98015;-68
2023/03/09 10:39:04;;;;;;;;;;;;;;;13.39;42.60;98843.78;4925284;28;97821;-70
2023/03/09 10:41:30;;;;;;;;;;;;;;;13.44;42.82;98830.06;4913996;28;98073;-67
2023/03/09 10:43:57;;;;;;;;;;;;;;;13.40;42.49;98850.75;4906934;28;98250;-70
2023/03/09 10:46:24;;;;;;;;;;;;;;;13.47;42.66;98846.44;4899474;28;99193;-67
2023/03/09 10:49:09;;;;;;;;;;;;;;;13.49;42.45;98846.13;4905050;28;98329;-69
2023/03/09 10:51:53;;;;;;;;;;;;;;;13.61;42.43;98843.53;4921415;28;98269;-68
2023/03/09 10:54:30;;;;;;;;;;;;;;;13.79;42.11;98852.34;4907778;28;98474;-68
2023/03/09 10:56:57;;;;;;;;;;;;;;;13.82;42.59;98843.56;4908979;28;99946;-68
2023/03/09 10:59:24;;;;;;;;;;;;;;;13.88;42.39;98844.97;4910161;28;98066;-69
2023/03/09 11:01:57;;;;;;;;;;;;;;;14.13;42.14;98845.91;4923213;28;97969;-69
2023/03/09 11:04:26;;;;;;;;;;;;;;;14.28;42.18;98841.81;4929866;28;98287;-70
2023/03/09 11:06:59;;;;;;;;;;;;;;;14.20;42.04;98848.91;4940390;28;100080;-69
2023/03/09 11:09:27;;;;;;;;;;;;;;;14.09;42.64;98855.03;4910092;28;97962;-69
2023/03/09 11:11:53;;;;;;;;;;;;;;;14.11;42.38;98860.91;4926279;28;98193;-69
2023/03/09 11:14:26;;;;;;;;;;;;;;;14.17;42.42;98865.81;4909196;28;98233;-70
2023/03/09 11:17:00;;;;;;;;;;;;;;;14.11;42.67;98877.97;4935978;28;98224;-70
2023/03/09 11:19:27;;;;;;;;;;;;;;;14.07;42.44;98873.53;4909842;28;97817;-69
2023/03/09 11:22:03;;;;;;;;;;;;;;;14.13;42.39;98872.22;4907198;28;98167;-69
2023/03/09 11:24:37;;;;;;;;;;;;;;;14.11;42.47;98875.28;4940041;28;98396;-70
2023/03/09 11:27:27;;;;;;;;;;;;;;;14.12;42.90;98884.97;4925087;28;107878;-70
2023/03/09 11:30:02;;;;;;;;;;;;;;;14.12;42.76;98884.97;4928687;28;98283;-69
2023/03/09 11:32:28;;;;;;;;;;;;;;;14.08;42.83;98886.75;4926928;28;98191;-69
2023/03/09 11:34:54;;;;;;;;;;;;;;;14.00;42.76;98891.09;4910274;28;98199;-68
2023/03/09 11:37:47;;;;;;;;;;;;;;;13.91;42.63;98879.53;4938015;28;97938;-68
2023/03/09 11:40:31;;;;;;;;;;;;;;;13.87;42.70;98885.91;4935101;28;98350;-69
2023/03/09 11:43:19;;;;;;;;;;;;;;;13.84;42.73;98889.28;4941024;28;98111;-68
2023/03/09 11:45:45;;;;;;;;;;;;;;;13.70;42.61;98893.00;4923728;28;98696;-70
2023/03/09 11:48:17;;;;;;;;;;;;;;;13.63;42.92;98900.03;4925760;28;117506;-68
2023/03/09 11:50:54;;;;;;;;;;;;;;;13.61;42.98;98900.38;4952406;28;97778;-69
2023/03/09 11:53:30;;;;;;;;;;;;;;;13.65;42.92;98900.53;4921574;28;99439;-68
2023/03/09 11:56:12;;;;;;;;;;;;;;;13.60;42.99;98903.41;4924031;28;98232;-69
2023/03/09 11:58:40;;;;;;;;;;;;;;;13.55;43.25;98896.25;4910989;28;99087;-68
2023/03/09 12:01:35;;;;;;;;;;;;;;;13.51;43.23;98900.72;4909546;28;99391;-69
2023/03/09 12:04:05;;;;;;;;;;;;;;;13.56;43.14;98902.44;4927674;28;98101;-70
2023/03/09 12:06:37;;;;;;;;;;;;;;;13.61;42.65;98907.72;4909280;28;98278;-68
2023/03/09 12:09:05;;;;;;;;;;;;;;;13.62;43.05;98901.94;4908319;28;99555;-70
2023/03/09 12:11:40;;;;;;;;;;;;;;;13.63;42.88;98911.66;4937791;28;98062;-70
2023/03/09 12:14:22;;;;;;;;;;;;;;;13.61;43.03;98913.91;4908595;28;98388;-68
2023/03/09 12:16:50;;;;;;;;;;;;;;;13.67;42.65;98915.31;4923839;28;98101;-68
2023/03/09 12:19:18;;;;;;;;;;;;;;;13.69;42.82;98907.66;4910020;28;99032;-70
2023/03/09 12:21:50;;;;;;;;;;;;;;;13.73;42.94;98913.22;4907417;28;98037;-69
2023/03/09 12:24:22;;;;;;;;;;;;;;;13.71;42.64;98904.63;4909532;28;98203;-70
2023/03/09 12:27:10;;;;;;;;;;;;;;;13.76;42.95;98909.88;4951889;28;98498;-69
2023/03/09 12:30:06;;;;;;;;;;;;;;;13.84;42.49;98903.63;4937528;28;98345;-70
2023/03/09 12:32:39;;;;;;;;;;;;;;;13.91;42.75;98905.81;4928221;28;97884;-69
2023/03/09 12:35:10;;;;;;;;;;;;;;;13.99;42.88;98900.34;4911886;28;98347;-70
2023/03/09 12:37:36;;;;;;;;;;;;;;;14.02;42.52;98890.75;4905543;28;98026;-69
2023/03/09 12:40:27;;;;;;;;;;;;;;;14.04;42.58;98893.16;4953430;28;98593;-69
2023/03/09 12:43:15;;;;;;;;;;;;;;;14.07;42.86;98885.19;4942065;28;98217;-70
2023/03/09 12:45:50;;;;;;;;;;;;;;;14.10;42.78;98889.91;4941183;28;97993;-70
2023/03/09 12:48:24;;;;;;;;;;;;;;;14.18;42.47;98893.69;4924052;28;98232;-69
2023/03/09 12:51:04;;;;;;;;;;;;;;;14.17;42.49;98890.19;4920401;28;98043;-69
2023/03/09 12:53:31;;;;;;;;;;;;;;;14.16;42.58;98901.38;4910552;28;98216;-71